createdAt,value
2018-11-22T00:00:00.321Z,18.65
2018-11-22T00:02:26.996Z,19.50
2018-11-22T00:04:53.726Z,13.70
2018-11-22T00:07:20.674Z,19.15
2018-11-22T00:09:47.331Z,17.92
2018-11-22T00:12:13.994Z,17.80
2018-11-22T00:14:40.914Z,17.67
2018-11-22T00:17:07.593Z,16.85
2018-11-22T00:19:34.257Z,15.10
2018-11-22T00:22:01.236Z,19.35
2018-11-22T00:24:27.887Z,15.90
2018-11-22T00:26:54.548Z,18.70
2018-11-22T00:29:21.251Z,17.57
2018-11-22T00:31:47.940Z,17.17
2018-11-22T00:34:14.592Z,17.27
2018-11-22T00:36:41.655Z,18.50
2018-11-22T00:39:09.737Z,18.10
2018-11-22T00:41:36.515Z,17.82
2018-11-22T00:44:03.520Z,17.32
2018-11-22T00:46:30.166Z,18.55
2018-11-22T00:48:56.826Z,18.77
2018-11-22T00:51:23.500Z,16.42
2018-11-22T00:53:50.142Z,18.35
2018-11-22T00:56:16.820Z,18.77
2018-11-22T00:58:43.477Z,17.90
2018-11-22T01:01:10.149Z,17.85
2018-11-22T01:03:36.812Z,17.10
2018-11-22T01:06:03.849Z,19.10
2018-11-22T01:08:30.684Z,16.80
2018-11-22T01:10:57.780Z,18.50
2018-11-22T01:13:24.689Z,18.62
2018-11-22T01:15:51.339Z,19.73
2018-11-22T01:18:17.994Z,19.62
2018-11-22T01:20:44.661Z,18.10
2018-11-22T01:23:11.350Z,18.35
2018-11-22T01:25:38.015Z,20.37
2018-11-22T01:28:04.765Z,17.82
2018-11-22T01:30:31.529Z,18.95
2018-11-22T01:32:58.220Z,17.52
2018-11-22T01:35:25.377Z,17.82
2018-11-22T01:37:52.074Z,18.05
2018-11-22T01:40:20.578Z,17.15
2018-11-22T01:42:47.242Z,19.35
2018-11-22T01:45:15.437Z,70.70
2018-11-22T01:47:42.201Z,49.58
2018-11-22T01:50:10.472Z,18.65
2018-11-22T01:52:37.471Z,18.12
2018-11-22T01:55:05.656Z,48.65
2018-11-22T01:57:32.314Z,19.02
2018-11-22T01:59:58.996Z,18.45
2018-11-22T02:02:25.661Z,18.75
2018-11-22T02:04:52.306Z,18.98
2018-11-22T02:07:18.973Z,19.37
2018-11-22T02:09:46.205Z,19.42
2018-11-22T02:12:12.937Z,18.27
2018-11-22T02:14:39.605Z,19.07
2018-11-22T02:17:06.382Z,19.10
2018-11-22T02:19:33.026Z,18.70
2018-11-22T02:21:59.684Z,18.23
2018-11-22T02:24:26.606Z,19.55
2018-11-22T02:26:53.269Z,19.48
2018-11-22T02:29:19.995Z,19.80
2018-11-22T02:31:46.718Z,18.07
2018-11-22T02:34:13.358Z,19.50
2018-11-22T02:36:40.027Z,18.80
2018-11-22T02:39:07.531Z,21.33
2018-11-22T02:41:34.181Z,19.92
2018-11-22T02:44:01.102Z,20.23
2018-11-22T02:46:27.774Z,19.95
2018-11-22T02:48:54.437Z,18.77
2018-11-22T02:51:21.095Z,19.10
2018-11-22T02:53:47.770Z,19.82
2018-11-22T02:56:14.586Z,20.17
2018-11-22T02:58:41.259Z,20.25
2018-11-22T03:01:08.053Z,18.37
2018-11-22T03:03:34.725Z,20.30
2018-11-22T03:06:01.450Z,19.30
2018-11-22T03:08:28.093Z,17.52
2018-11-22T03:10:54.738Z,18.12
2018-11-22T03:13:21.819Z,17.48
2018-11-22T03:15:48.603Z,18.05
2018-11-22T03:18:15.288Z,17.40
2018-11-22T03:20:42.101Z,17.87
2018-11-22T03:23:08.758Z,19.95
2018-11-22T03:25:35.746Z,18.75
2018-11-22T03:28:02.900Z,19.07
2018-11-22T03:30:30.123Z,19.45
2018-11-22T03:32:56.790Z,19.48
2018-11-22T03:35:24.778Z,17.87
2018-11-22T03:37:51.438Z,19.60
2018-11-22T03:40:19.653Z,19.35
2018-11-22T03:42:46.343Z,18.07
2018-11-22T03:45:13.849Z,20.35
2018-11-22T03:47:40.943Z,19.15
2018-11-22T03:50:09.568Z,17.82
2018-11-22T03:52:36.338Z,20.57
2018-11-22T03:55:04.085Z,19.80
2018-11-22T03:57:30.801Z,19.07
2018-11-22T03:59:57.442Z,18.73
2018-11-22T04:02:24.160Z,19.40
2018-11-22T04:04:50.978Z,20.17
2018-11-22T04:07:17.721Z,19.52
2018-11-22T04:09:44.853Z,20.57
2018-11-22T04:12:11.757Z,22.20
2018-11-22T04:14:38.434Z,19.85
2018-11-22T04:17:05.250Z,19.50
2018-11-22T04:19:32.320Z,21.35
2018-11-22T04:21:58.973Z,20.65
2018-11-22T04:24:25.638Z,19.80
2018-11-22T04:26:52.331Z,21.05
2018-11-22T04:29:18.978Z,21.30
2018-11-22T04:31:45.901Z,20.02
2018-11-22T04:34:12.675Z,18.67
2018-11-22T04:36:39.353Z,19.37
2018-11-22T04:39:07.863Z,17.77
2018-11-22T04:41:34.538Z,21.70
2018-11-22T04:44:01.194Z,20.10
2018-11-22T04:46:29.999Z,21.75
2018-11-22T04:48:56.771Z,20.52
2018-11-22T04:51:23.532Z,21.52
2018-11-22T04:53:50.193Z,23.25
2018-11-22T04:56:16.892Z,23.05
2018-11-22T04:58:43.562Z,21.42
2018-11-22T05:01:10.226Z,20.27
2018-11-22T05:03:36.931Z,22.22
2018-11-22T05:06:03.696Z,23.87
2018-11-22T05:08:30.360Z,25.65
2018-11-22T05:10:57.022Z,21.17
2018-11-22T05:13:23.678Z,22.90
2018-11-22T05:15:50.350Z,21.60
2018-11-22T05:18:17.029Z,21.97
2018-11-22T05:20:43.677Z,21.62
2018-11-22T05:23:10.342Z,22.40
2018-11-22T05:25:37.009Z,22.42
2018-11-22T05:28:03.901Z,22.70
2018-11-22T05:30:30.552Z,22.32
2018-11-22T05:32:57.210Z,22.82
2018-11-22T05:35:24.198Z,19.25
2018-11-22T05:37:50.920Z,22.82
2018-11-22T05:40:19.234Z,22.30
2018-11-22T05:42:45.917Z,24.18
2018-11-22T05:45:14.561Z,37.93
2018-11-22T05:47:41.289Z,24.25
2018-11-22T05:50:09.726Z,21.62
2018-11-22T05:52:36.444Z,23.57
2018-11-22T05:55:03.531Z,21.65
2018-11-22T05:57:30.190Z,22.02
2018-11-22T05:59:56.946Z,22.35
2018-11-22T06:02:23.628Z,23.55
2018-11-22T06:04:50.284Z,24.32
2018-11-22T06:07:16.949Z,23.45
2018-11-22T06:09:43.658Z,24.70
2018-11-22T06:12:10.326Z,25.02
2018-11-22T06:14:37.018Z,23.10
2018-11-22T06:17:03.811Z,24.45
2018-11-22T06:19:30.493Z,24.10
2018-11-22T06:21:57.241Z,23.85
2018-11-22T06:24:23.885Z,24.63
2018-11-22T06:26:50.586Z,23.85
2018-11-22T06:29:17.358Z,23.50
2018-11-22T06:31:44.029Z,23.92
2018-11-22T06:34:10.682Z,22.93
2018-11-22T06:36:37.405Z,22.93
2018-11-22T06:39:06.396Z,24.00
2018-11-22T06:41:33.545Z,22.87
2018-11-22T06:44:00.178Z,22.10
2018-11-22T06:46:26.842Z,24.25
2018-11-22T06:48:53.531Z,24.15
2018-11-22T06:51:20.192Z,23.50
2018-11-22T06:53:46.844Z,24.55
2018-11-22T06:56:13.805Z,23.20
2018-11-22T06:58:40.524Z,24.30
2018-11-22T07:01:07.185Z,24.82
2018-11-22T07:03:33.859Z,26.48
2018-11-22T07:06:00.520Z,26.55
2018-11-22T07:08:27.185Z,25.32
2018-11-22T07:10:53.888Z,24.20
2018-11-22T07:13:20.578Z,24.98
2018-11-22T07:15:47.275Z,27.10
2018-11-22T07:18:13.954Z,22.93
2018-11-22T07:20:40.617Z,24.82
2018-11-22T07:23:07.278Z,23.05
2018-11-22T07:25:33.944Z,25.50
2018-11-22T07:28:00.605Z,23.70
2018-11-22T07:30:42.321Z,24.10
2018-11-22T07:33:04.925Z,26.00
2018-11-22T07:35:32.805Z,22.40
2018-11-22T07:37:59.474Z,26.62
2018-11-22T07:40:27.700Z,26.93
2018-11-22T07:42:54.354Z,25.70
2018-11-22T07:45:25.868Z,30.65
2018-11-22T07:47:53.455Z,25.97
2018-11-22T07:50:21.020Z,28.00
2018-11-22T07:52:47.742Z,27.82
2018-11-22T07:55:15.414Z,23.60
2018-11-22T07:57:42.075Z,23.80
2018-11-22T08:00:10.838Z,24.60
2018-11-22T08:02:37.684Z,23.75
2018-11-22T08:05:05.146Z,24.20
2018-11-22T08:07:31.850Z,23.87
2018-11-22T08:09:58.503Z,23.95
2018-11-22T08:12:26.032Z,24.75
2018-11-22T08:14:51.851Z,29.63
2018-11-22T08:17:18.538Z,23.47
2018-11-22T08:19:45.243Z,26.25
2018-11-22T08:22:11.898Z,24.60
2018-11-22T08:24:38.560Z,27.98
2018-11-22T08:27:05.333Z,26.60
2018-11-22T12:18:07.156Z,25.30
2018-11-22T12:20:34.524Z,26.48
2018-11-22T12:23:02.032Z,29.82
2018-11-22T12:25:29.321Z,26.97
2018-11-22T12:27:58.992Z,27.95
2018-11-22T12:30:27.416Z,23.27
2018-11-22T12:33:00.248Z,23.67
2018-11-22T12:35:33.029Z,24.27
2018-11-22T12:38:06.590Z,29.90
2018-11-22T12:40:33.663Z,28.57
2018-11-22T12:43:00.738Z,32.73
2018-11-22T12:45:28.360Z,31.42
2018-11-22T12:47:55.698Z,28.12
2018-11-22T12:50:22.784Z,28.20
2018-11-22T12:52:50.200Z,34.23
2018-11-22T12:55:17.278Z,31.00
2018-11-22T12:57:44.388Z,30.00
2018-11-22T13:00:13.465Z,25.35
2018-11-22T13:02:40.740Z,28.23
2018-11-22T13:05:09.245Z,29.75
2018-11-22T13:07:36.613Z,30.82
2018-11-22T13:10:05.922Z,31.37
2018-11-22T13:12:33.537Z,35.83
2018-11-22T13:15:00.819Z,40.40
2018-11-22T13:17:27.912Z,28.70
2018-11-22T13:19:54.984Z,33.53
2018-11-22T13:22:22.053Z,26.05
2018-11-22T13:24:49.698Z,33.10
2018-11-22T13:27:16.773Z,32.35
2018-11-22T13:29:43.981Z,33.35
2018-11-22T13:32:11.323Z,26.25
2018-11-22T13:34:38.676Z,25.57
2018-11-22T13:37:06.054Z,188.90
2018-11-22T13:39:33.329Z,137.30
2018-11-22T13:42:00.644Z,177.12
2018-11-22T13:44:27.745Z,130.47
2018-11-22T13:46:54.816Z,135.25
2018-11-22T13:49:21.885Z,193.43
2018-11-22T13:51:49.336Z,97.22
2018-11-22T13:54:16.764Z,66.35
2018-11-22T13:56:44.293Z,77.12
2018-11-22T13:59:12.164Z,51.88
2018-11-22T14:01:39.597Z,36.98
2018-11-22T14:04:06.665Z,59.23
2018-11-22T14:06:33.742Z,43.87
2018-11-22T14:09:01.561Z,39.05
2018-11-22T14:11:28.714Z,41.80
2018-11-22T14:14:03.762Z,31.77
2018-11-22T14:16:31.066Z,30.70
2018-11-22T14:18:58.139Z,34.10
2018-11-22T14:21:25.429Z,35.48
2018-11-22T14:23:53.017Z,34.73
2018-11-22T14:26:20.230Z,39.88
2018-11-22T14:28:47.492Z,34.25
2018-11-22T14:31:15.113Z,26.75
2018-11-22T14:33:43.541Z,29.52
2018-11-22T14:36:10.955Z,30.32
2018-11-22T14:38:38.034Z,33.10
2018-11-22T14:41:05.805Z,25.25
2018-11-22T14:43:32.913Z,27.17
2018-11-22T14:45:59.977Z,27.37
2018-11-22T14:48:27.482Z,30.60
2018-11-22T14:51:00.925Z,27.42
2018-11-22T14:53:28.456Z,42.05
2018-11-22T14:55:55.590Z,51.08
2018-11-22T14:58:22.729Z,26.68
2018-11-22T15:00:49.780Z,37.88
2018-11-22T15:03:17.000Z,40.25
2018-11-22T15:05:44.457Z,26.55
2018-11-22T15:08:11.524Z,28.35
2018-11-22T15:10:38.597Z,34.48
2018-11-22T15:13:06.284Z,28.83
2018-11-22T15:15:33.374Z,26.68
2018-11-22T15:18:00.513Z,30.60
2018-11-22T15:20:28.140Z,25.00
2018-11-22T15:22:55.296Z,23.40
2018-11-22T15:25:25.713Z,25.97
2018-11-22T15:27:53.095Z,24.70
2018-11-22T15:30:22.688Z,25.90
2018-11-22T15:32:50.060Z,27.75
2018-11-22T15:35:18.633Z,28.55
2018-11-22T15:37:46.609Z,25.65
2018-11-22T15:40:16.120Z,23.02
2018-11-22T15:42:43.909Z,24.75
2018-11-22T15:45:12.598Z,25.43
2018-11-22T15:47:39.958Z,23.70
2018-11-22T15:50:09.051Z,25.00
2018-11-22T15:52:36.152Z,25.92
2018-11-22T15:55:03.761Z,25.17
2018-11-22T15:57:30.840Z,23.18
2018-11-22T15:59:57.899Z,25.35
2018-11-22T16:02:25.361Z,24.07
2018-11-22T16:04:52.484Z,25.25
2018-11-22T16:07:19.550Z,24.12
2018-11-22T16:09:46.908Z,24.45
2018-11-22T16:12:13.956Z,23.20
2018-11-22T16:14:41.673Z,25.65
2018-11-22T16:17:08.993Z,23.70
2018-11-22T16:19:36.768Z,24.20
2018-11-22T16:22:04.162Z,23.47
2018-11-22T16:24:31.789Z,23.67
2018-11-22T16:26:59.136Z,24.05
2018-11-22T16:29:26.267Z,26.93
2018-11-22T16:31:53.781Z,25.23
2018-11-22T16:34:20.941Z,22.82
2018-11-22T16:36:48.038Z,25.60
2018-11-22T16:39:15.137Z,25.80
2018-11-22T16:41:42.384Z,25.68
2018-11-22T16:44:09.440Z,23.77
2018-11-22T16:46:36.552Z,26.93
2018-11-22T16:49:03.931Z,31.17
2018-11-22T16:51:30.990Z,34.20
2018-11-22T16:53:58.113Z,46.08
2018-11-22T16:56:25.564Z,32.80
2018-11-22T16:58:52.614Z,42.23
2018-11-22T17:01:19.704Z,27.22
2018-11-22T17:03:47.009Z,29.90
2018-11-22T17:06:14.096Z,41.92
2018-11-22T17:08:41.189Z,50.33
2018-11-22T17:11:08.528Z,25.80
2018-11-22T17:13:35.780Z,33.23
2018-11-22T17:16:02.903Z,29.95
2018-11-22T17:18:30.154Z,46.45
2018-11-22T17:20:57.237Z,38.63
2018-11-22T17:23:24.374Z,27.80
2018-11-22T17:25:51.457Z,26.55
2018-11-22T17:28:18.528Z,24.55
2018-11-22T17:30:45.619Z,32.75
2018-11-22T17:33:12.752Z,29.72
2018-11-22T17:35:40.617Z,23.30
2018-11-22T17:38:08.472Z,34.60
2018-11-22T17:40:37.169Z,30.88
2018-11-22T17:43:04.896Z,34.40
2018-11-22T17:45:33.440Z,71.90
2018-11-22T17:48:00.940Z,45.08
2018-11-22T17:50:29.785Z,28.55
2018-11-22T17:52:57.217Z,33.58
2018-11-22T17:55:25.634Z,28.80
2018-11-22T17:57:52.690Z,38.35
2018-11-22T18:00:22.376Z,30.20
2018-11-22T18:02:50.612Z,37.67
2018-11-22T18:05:17.718Z,38.98
2018-11-22T18:07:45.196Z,40.50
2018-11-22T18:10:14.416Z,25.68
2018-11-22T18:12:42.591Z,29.80
2018-11-22T18:15:10.968Z,26.40
2018-11-22T18:17:38.241Z,51.98
2018-11-22T18:20:08.632Z,39.70
2018-11-22T18:22:35.783Z,41.48
2018-11-22T18:25:03.254Z,29.50
2018-11-22T18:27:33.931Z,39.92
2018-11-22T18:30:04.640Z,25.65
2018-11-22T18:32:32.023Z,33.55
2018-11-22T18:34:59.112Z,34.15
2018-11-22T18:37:26.538Z,26.00
2018-11-22T18:39:53.804Z,53.48
2018-11-22T18:42:20.905Z,30.10
2018-11-22T18:44:48.589Z,27.80
2018-11-22T18:47:16.410Z,40.08
2018-11-22T18:49:43.664Z,42.95
2018-11-22T18:52:11.013Z,33.45
2018-11-22T18:54:38.261Z,26.87
2018-11-22T18:57:06.559Z,40.75
2018-11-22T18:59:33.841Z,33.88
2018-11-22T19:02:01.570Z,24.50
2018-11-22T19:04:28.632Z,32.50
2018-11-22T19:06:56.632Z,37.93
2018-11-22T19:09:24.137Z,40.00
2018-11-22T19:11:51.507Z,25.08
2018-11-22T19:14:19.048Z,35.25
2018-11-22T19:16:46.110Z,45.52
2018-11-22T19:19:13.345Z,26.30
2018-11-22T19:21:41.076Z,29.70
2018-11-22T19:24:08.029Z,40.55
2018-11-22T19:26:35.110Z,29.10
2018-11-22T19:29:02.729Z,26.68
2018-11-22T19:31:29.960Z,75.30
2018-11-22T19:33:57.036Z,43.52
2018-11-22T19:36:24.138Z,64.10
2018-11-22T19:38:51.225Z,45.75
2018-11-22T19:41:18.297Z,35.35
2018-11-22T19:48:40.760Z,42.85
2018-11-22T19:51:07.852Z,22.75
2018-11-22T19:53:35.299Z,59.60
2018-11-22T19:56:02.397Z,48.33
2018-11-22T19:58:29.513Z,46.60
2018-11-22T20:00:56.932Z,26.97
2018-11-22T20:03:24.092Z,26.65
2018-11-22T20:05:51.372Z,57.27
2018-11-22T20:08:19.245Z,45.78
2018-11-22T20:10:46.789Z,34.43
2018-11-22T20:13:14.185Z,37.17
2018-11-22T20:15:41.308Z,26.10
2018-11-22T20:18:09.467Z,40.80
2018-11-22T20:20:37.061Z,36.90
2018-11-22T20:23:04.195Z,37.33
2018-11-22T20:25:31.282Z,31.37
2018-11-22T20:27:59.011Z,79.10
2018-11-22T20:30:30.745Z,26.82
2018-11-22T20:32:57.844Z,34.67
2018-11-22T20:35:25.287Z,27.87
2018-11-22T20:37:52.918Z,56.25
2018-11-22T20:40:21.232Z,44.50
2018-11-22T20:42:48.599Z,34.98
2018-11-22T20:45:17.223Z,43.08
2018-11-22T20:47:45.403Z,29.90
2018-11-22T20:50:14.764Z,29.45
2018-11-22T20:52:42.052Z,42.30
2018-11-22T20:55:12.088Z,47.20
2018-11-22T20:57:39.956Z,39.20
2018-11-22T21:00:10.690Z,36.08
2018-11-22T21:02:38.116Z,28.95
2018-11-22T21:05:06.114Z,65.85
2018-11-22T21:07:33.189Z,30.62
2018-11-22T21:10:00.264Z,30.80
2018-11-22T21:12:27.503Z,36.60
2018-11-22T21:14:54.880Z,45.48
2018-11-22T21:17:22.165Z,39.18
2018-11-22T21:19:49.276Z,36.68
2018-11-22T21:22:16.336Z,25.75
2018-11-22T21:24:43.392Z,26.80
2018-11-22T21:27:10.676Z,42.40
2018-11-22T21:29:37.751Z,53.45
2018-11-22T21:32:05.273Z,44.75
2018-11-22T21:34:32.376Z,33.98
2018-11-22T21:36:59.654Z,32.55
2018-11-22T21:39:26.719Z,32.15
2018-11-22T21:41:54.065Z,40.30
2018-11-22T21:44:21.737Z,35.20
2018-11-22T21:46:49.272Z,29.27
2018-11-22T21:49:16.577Z,26.62
2018-11-22T21:51:44.720Z,34.50
2018-11-22T21:54:11.794Z,29.57
2018-11-22T21:56:38.912Z,34.65
2018-11-22T21:59:05.993Z,28.23
2018-11-22T22:01:33.353Z,36.93
2018-11-22T22:04:00.426Z,33.50
2018-11-22T22:06:27.499Z,30.17
2018-11-22T22:08:55.778Z,33.80
2018-11-22T22:11:23.141Z,32.73
2018-11-22T22:13:50.229Z,28.85
2018-11-22T22:16:17.341Z,33.02
2018-11-22T22:18:44.408Z,31.00
2018-11-22T22:21:11.479Z,30.85
2018-11-22T22:23:38.709Z,35.13
2018-11-22T22:26:05.792Z,31.87
2018-11-22T22:28:33.322Z,28.87
2018-11-22T22:31:01.045Z,27.87
2018-11-22T22:33:28.115Z,28.55
2018-11-22T22:35:55.224Z,34.75
2018-11-22T22:38:22.493Z,30.32
2018-11-22T22:40:49.584Z,31.20
2018-11-22T22:43:16.643Z,30.40
2018-11-22T22:45:44.241Z,32.98
2018-11-22T22:48:11.918Z,30.17
2018-11-22T22:50:39.645Z,30.50
2018-11-22T22:53:07.574Z,29.10
2018-11-22T22:55:34.657Z,29.60
2018-11-22T22:58:01.724Z,30.37
2018-11-22T23:00:35.031Z,28.25
2018-11-22T23:03:04.334Z,28.02
2018-11-22T23:05:31.763Z,31.65
2018-11-22T23:07:59.317Z,28.73
2018-11-22T23:10:26.488Z,28.90
2018-11-22T23:12:54.275Z,32.28
2018-11-22T23:15:21.922Z,31.73
2018-11-22T23:17:49.042Z,30.90
2018-11-22T23:20:18.281Z,30.23
2018-11-22T23:22:45.822Z,32.78
2018-11-22T23:25:13.613Z,31.40
2018-11-22T23:27:40.854Z,32.98
2018-11-22T23:30:17.284Z,31.17
2018-11-22T23:32:46.605Z,33.58
2018-11-22T23:35:17.348Z,31.42
2018-11-22T23:37:44.600Z,29.67
2018-11-22T23:40:13.147Z,29.82
2018-11-22T23:42:40.766Z,28.83
2018-11-22T23:45:09.212Z,30.50
2018-11-22T23:47:36.777Z,31.33
2018-11-22T23:50:05.104Z,28.45
2018-11-22T23:52:32.200Z,28.90
2018-11-22T23:54:59.259Z,28.75
2018-11-22T23:57:26.346Z,30.55
2018-11-22T23:59:53.416Z,33.38
